Time;durP1;ratioP1;P1;durP2;ratioP2;P2;SDS_P1;SDS_P2;PMS_P1;PMS_P2;Temp;Humidity;BMP_temperature;BMP_pressure;BME280_temperature;BME280_humidity;BME280_pressure;Samples;Min_cycle;Max_cycle;Signal;HPM_P1;HPM_P2
2023/08/19 00:01:44;;;;;;;;;21.50;21.50;;;;;27.94;66.86;100622.78;4997285;28;45456;-46
2023/08/19 00:04:10;;;;;;;;;19.00;18.25;;;;;27.94;66.78;100630.97;4999245;28;45268;-45
2023/08/19 00:06:41;;;;;;;;;23.25;20.25;;;;;27.92;66.77;100629.56;4999569;28;45649;-41
2023/08/19 00:09:10;;;;;;;;;24.40;21.00;;;;;27.89;66.49;100630.91;4999253;28;45549;-44
2023/08/19 00:11:37;;;;;;;;;23.20;19.60;;;;;27.84;66.54;100618.03;4999377;28;45579;-46
2023/08/19 00:14:04;;;;;;;;;23.00;18.20;;;;;27.87;66.82;100630.38;4999286;28;45318;-43
2023/08/19 00:16:30;;;;;;;;;23.20;20.60;;;;;27.86;67.18;100636.94;4999203;28;45483;-44
2023/08/19 00:18:55;;;;;;;;;23.80;20.60;;;;;27.79;66.72;100631.69;4998564;28;46543;-45
2023/08/19 00:21:21;;;;;;;;;23.00;21.25;;;;;27.82;66.89;100638.53;4998842;28;45320;-44
2023/08/19 00:23:46;;;;;;;;;24.25;22.50;;;;;27.81;66.98;100647.81;4998745;28;45591;-45
2023/08/19 00:26:11;;;;;;;;;22.50;20.00;;;;;27.78;67.19;100642.91;4999080;28;45298;-45
2023/08/19 00:28:40;;;;;;;;;22.00;19.25;;;;;27.75;67.20;100638.75;4998665;28;46123;-48
2023/08/19 00:31:06;;;;;;;;;24.80;23.40;;;;;27.75;67.42;100655.16;4998732;28;45412;-44
2023/08/19 00:33:32;;;;;;;;;20.60;20.20;;;;;27.71;67.49;100653.19;4998840;28;45473;-44
2023/08/19 00:35:57;;;;;;;;;27.00;22.75;;;;;27.70;67.99;100655.09;4998961;28;45389;-44
2023/08/19 00:38:23;;;;;;;;;21.00;21.00;;;;;27.70;67.78;100665.22;4998749;28;47604;-45
2023/08/19 00:40:48;;;;;;;;;17.00;15.50;;;;;27.64;67.71;100667.06;4998799;28;45750;-46
2023/08/19 00:43:14;;;;;;;;;24.75;21.50;;;;;27.66;68.08;100667.66;4999014;28;45386;-48
2023/08/19 00:45:46;;;;;;;;;20.50;19.00;;;;;27.66;67.81;100661.34;4998956;28;45495;-49
2023/08/19 00:48:12;;;;;;;;;24.80;23.40;;;;;27.67;67.56;100666.56;4998580;28;46605;-45
2023/08/19 00:50:39;;;;;;;;;27.80;22.60;;;;;27.63;67.94;100661.88;4998787;28;45345;-45
2023/08/19 00:53:05;;;;;;;;;28.60;21.60;;;;;27.64;67.51;100660.78;4997662;28;45483;-49
2023/08/19 00:55:31;;;;;;;;;24.80;21.00;;;;;27.61;67.82;100662.16;4998945;28;45615;-47
2023/08/19 00:58:03;;;;;;;;;21.25;20.00;;;;;27.52;67.55;100648.16;4998493;28;45277;-47
2023/08/19 01:00:30;;;;;;;;;19.80;18.20;;;;;27.60;67.21;100660.47;4998411;28;45563;-42
2023/08/19 01:02:55;;;;;;;;;26.40;22.80;;;;;27.58;67.51;100655.28;4998597;28;45440;-48
2023/08/19 01:05:24;;;;;;;;;26.50;24.50;;;;;27.57;67.58;100653.66;4997262;28;45397;-48
2023/08/19 01:07:54;;;;;;;;;18.20;18.20;;;;;27.58;67.20;100658.03;4998224;28;46568;-48
2023/08/19 01:10:28;;;;;;;;;25.00;21.00;;;;;27.55;67.41;100653.06;4998337;28;45409;-46
2023/08/19 01:13:06;;;;;;;;;28.00;21.60;;;;;27.56;67.41;100660.19;4998329;28;45458;-49
2023/08/19 01:15:34;;;;;;;;;26.20;21.00;;;;;27.56;67.26;100670.31;4998685;28;45499;-48
2023/08/19 01:18:03;;;;;;;;;26.40;22.00;;;;;27.55;66.96;100671.38;4998097;28;46471;-49
2023/08/19 01:20:31;;;;;;;;;24.00;21.40;;;;;27.54;67.46;100672.47;4998024;28;45517;-48
2023/08/19 01:23:03;;;;;;;;;26.40;22.80;;;;;27.54;67.55;100670.56;4997947;28;45429;-46
2023/08/19 01:25:29;;;;;;;;;24.00;22.20;;;;;27.55;67.36;100669.47;4998191;28;45420;-44
2023/08/19 01:27:54;;;;;;;;;20.40;19.60;;;;;27.55;67.29;100679.56;4998020;28;45639;-48
2023/08/19 01:30:20;;;;;;;;;19.75;19.25;;;;;27.55;66.97;100685.03;4997972;28;45388;-48
2023/08/19 01:32:46;;;;;;;;;21.50;21.25;;;;;27.53;67.38;100684.50;4998269;28;45374;-47
2023/08/19 01:35:14;;;;;;;;;22.80;20.80;;;;;27.56;67.27;100692.16;4998151;28;45559;-50
2023/08/19 01:38:00;;;;;;;;;22.60;19.00;;;;;27.56;66.81;100692.16;4997916;28;46287;-45
2023/08/19 01:40:27;;;;;;;;;21.80;20.40;;;;;27.55;66.54;100690.50;4997644;28;45738;-49
2023/08/19 01:42:54;;;;;;;;;21.40;19.40;;;;;27.55;66.84;100696.78;4998252;28;45421;-50
2023/08/19 01:45:20;;;;;;;;;20.00;18.60;;;;;27.54;66.28;100695.16;4998052;28;45468;-48
2023/08/19 01:47:52;;;;;;;;;21.20;17.60;;;;;27.52;66.18;100697.34;4997871;28;46313;-43
2023/08/19 01:50:17;;;;;;;;;20.20;17.00;;;;;27.52;66.02;100697.34;4997598;28;45393;-45
2023/08/19 01:52:43;;;;;;;;;21.25;17.50;;;;;27.51;65.80;100703.84;4997613;28;45464;-46
2023/08/19 01:55:09;;;;;;;;;22.75;19.75;;;;;27.52;65.49;100713.72;4998216;28;45396;-48
2023/08/19 01:57:34;;;;;;;;;22.00;18.75;;;;;27.50;65.15;100709.59;4997659;28;46299;-41
2023/08/19 01:59:59;;;;;;;;;17.50;17.00;;;;;27.52;65.13;100713.72;4997704;28;45404;-46
2023/08/19 02:02:25;;;;;;;;;21.75;17.25;;;;;27.53;64.55;100717.28;4997763;28;45417;-44
2023/08/19 02:04:50;;;;;;;;;16.75;16.75;;;;;27.51;64.33;100700.31;4997670;28;45431;-47
2023/08/19 02:07:16;;;;;;;;;19.00;17.50;;;;;27.50;64.05;100710.41;4997246;28;45473;-46
2023/08/19 02:09:42;;;;;;;;;19.25;17.75;;;;;27.53;63.72;100709.91;4997405;28;45362;-47
2023/08/19 02:12:08;;;;;;;;;16.40;13.00;;;;;27.50;63.63;100707.69;4997846;28;45371;-43
2023/08/19 02:14:33;;;;;;;;;18.75;16.00;;;;;27.54;63.16;100722.47;4997663;28;45288;-45
2023/08/19 02:16:59;;;;;;;;;19.25;16.25;;;;;27.53;62.76;100709.91;4997562;28;47141;-44
2023/08/19 02:19:24;;;;;;;;;16.25;13.25;;;;;27.54;61.88;100717.00;4997202;28;45401;-43
2023/08/19 02:21:50;;;;;;;;;20.00;16.75;;;;;27.52;61.69;100713.72;4995241;28;45300;-44
2023/08/19 02:24:15;;;;;;;;;16.75;15.75;;;;;27.52;61.32;100719.19;4995834;28;45446;-45
2023/08/19 02:26:40;;;;;;;;;16.25;15.75;;;;;27.52;61.26;100719.19;4997353;28;45346;-45
2023/08/19 02:29:06;;;;;;;;;13.75;12.50;;;;;27.53;61.03;100720.00;4997247;28;45400;-46
2023/08/19 02:31:31;;;;;;;;;12.50;12.50;;;;;27.53;61.16;100729.03;4997277;28;45341;-46
2023/08/19 02:33:57;;;;;;;;;14.25;14.25;;;;;27.51;60.48;100728.44;4997418;28;45673;-45
2023/08/19 02:36:22;;;;;;;;;15.50;14.75;;;;;27.49;60.79;100729.81;4996942;28;45537;-48
2023/08/19 02:38:47;;;;;;;;;18.25;15.00;;;;;27.42;60.44;100721.81;4997099;28;45436;-45
2023/08/19 02:41:13;;;;;;;;;16.75;13.75;;;;;27.40;60.58;100721.25;4996838;28;45341;-46
2023/08/19 02:43:38;;;;;;;;;14.75;13.00;;;;;27.46;60.59;100744.78;4997367;28;45326;-45
2023/08/19 02:46:04;;;;;;;;;14.00;13.00;;;;;27.47;60.25;100748.34;4996809;28;46475;-47
2023/08/19 02:48:30;;;;;;;;;13.00;11.80;;;;;27.46;59.91;100744.78;4996820;28;45472;-47
2023/08/19 02:50:55;;;;;;;;;20.50;15.75;;;;;27.46;60.45;100747.53;4997026;28;45490;-45
2023/08/19 02:53:21;;;;;;;;;15.00;13.00;;;;;27.44;59.92;100740.69;4997245;28;45357;-45
2023/08/19 02:55:46;;;;;;;;;13.75;13.00;;;;;27.38;60.01;100739.81;4997101;28;45446;-46
2023/08/19 02:58:13;;;;;;;;;15.75;15.25;;;;;27.42;59.85;100751.03;4996795;28;45346;-47
2023/08/19 03:00:39;;;;;;;;;15.40;14.00;;;;;27.41;60.10;100761.16;4996916;28;45401;-47
2023/08/19 03:03:08;;;;;;;;;17.40;14.00;;;;;27.41;60.10;100752.94;4997206;28;45328;-46
2023/08/19 03:05:37;;;;;;;;;17.00;15.00;;;;;27.39;60.29;100763.31;4996374;28;45649;-45
2023/08/19 03:08:04;;;;;;;;;14.20;12.20;;;;;27.38;60.14;100766.28;4996634;28;45255;-47
2023/08/19 03:10:32;;;;;;;;;13.60;13.60;;;;;27.37;59.82;100760.00;4996621;28;45207;-46
2023/08/19 03:12:59;;;;;;;;;18.20;14.60;;;;;27.32;60.00;100763.53;4996745;28;45523;-47
2023/08/19 03:15:24;;;;;;;;;15.80;12.80;;;;;27.35;60.21;100759.47;4996555;28;45540;-45
2023/08/19 03:17:49;;;;;;;;;18.25;14.75;;;;;27.29;60.13;100763.22;4996190;28;45468;-48
2023/08/19 03:20:15;;;;;;;;;17.75;14.50;;;;;27.33;60.10;100765.16;4996568;28;45453;-45
2023/08/19 03:22:40;;;;;;;;;15.50;13.75;;;;;27.29;60.07;100764.03;4996274;28;45556;-43
2023/08/19 03:25:06;;;;;;;;;12.50;12.50;;;;;27.26;60.20;100769.16;4996532;28;46199;-44
2023/08/19 03:27:31;;;;;;;;;16.75;15.25;;;;;27.28;60.20;100784.22;4996215;28;45242;-46
2023/08/19 03:29:57;;;;;;;;;12.50;10.75;;;;;27.25;60.14;100779.28;4996770;28;45806;-46
2023/08/19 03:32:22;;;;;;;;;20.50;15.25;;;;;27.24;59.98;100787.75;4996814;28;45178;-49
2023/08/19 03:34:47;;;;;;;;;15.25;14.25;;;;;27.24;59.79;100782.28;4996009;28;46260;-46
2023/08/19 03:37:13;;;;;;;;;17.25;14.00;;;;;27.15;59.22;100778.34;4993953;28;45344;-49
2023/08/19 03:39:38;;;;;;;;;15.00;14.00;;;;;27.17;59.09;100777.00;4996183;28;45354;-50
2023/08/19 03:42:04;;;;;;;;;14.75;11.50;;;;;27.09;59.18;100771.97;4996152;28;45251;-45
2023/08/19 03:44:29;;;;;;;;;14.25;13.25;;;;;27.08;59.18;100775.78;4996020;28;46096;-45
2023/08/19 03:46:54;;;;;;;;;17.00;12.75;;;;;27.15;59.15;100805.66;4996036;28;45526;-48
2023/08/19 03:49:20;;;;;;;;;15.25;14.50;;;;;27.08;58.54;100783.97;4995985;28;45202;-46
2023/08/19 03:51:45;;;;;;;;;12.25;12.25;;;;;27.10;58.46;100799.06;4996355;28;45368;-46
2023/08/19 03:54:10;;;;;;;;;15.50;14.50;;;;;27.06;58.02;100800.63;4995933;28;46463;-44
2023/08/19 03:56:36;;;;;;;;;18.25;11.75;;;;;27.05;58.08;100806.31;4996178;28;45629;-45
2023/08/19 03:59:01;;;;;;;;;14.25;11.00;;;;;27.03;57.93;100812.03;4995999;28;45475;-45
2023/08/19 04:01:26;;;;;;;;;11.25;10.50;;;;;27.02;58.42;100820.50;4995790;28;45529;-46
2023/08/19 04:03:52;;;;;;;;;13.00;10.00;;;;;26.99;57.54;100830.00;4995835;28;46044;-45
2023/08/19 04:06:17;;;;;;;;;11.75;9.75;;;;;26.97;57.47;100825.88;4995829;28;45424;-45
2023/08/19 04:08:42;;;;;;;;;10.00;9.50;;;;;26.96;57.31;100833.22;4995873;28;45286;-45
2023/08/19 04:11:08;;;;;;;;;14.25;11.75;;;;;26.95;57.27;100844.41;4994770;28;45295;-44
2023/08/19 04:13:34;;;;;;;;;12.50;11.25;;;;;26.91;57.46;100837.81;4995433;28;46917;-44
2023/08/19 04:16:05;;;;;;;;;10.50;10.00;;;;;26.88;57.19;100847.31;4996036;28;45437;-46
2023/08/19 04:18:32;;;;;;;;;11.40;9.20;;;;;26.88;57.02;100844.59;4995652;28;45341;-44
2023/08/19 04:21:01;;;;;;;;;11.00;9.00;;;;;26.86;57.03;100860.41;4995782;28;45421;-45
2023/08/19 04:23:26;;;;;;;;;12.40;9.40;;;;;26.84;57.31;100860.66;4993902;28;46900;-47
2023/08/19 04:25:55;;;;;;;;;13.00;10.00;;;;;26.84;57.15;100866.13;4995443;28;49763;-46
2023/08/19 04:28:20;;;;;;;;;11.00;10.00;;;;;26.81;57.44;100866.63;4995826;28;45464;-45
2023/08/19 04:30:45;;;;;;;;;10.75;10.50;;;;;26.82;56.98;100878.38;4995631;28;45354;-45
2023/08/19 04:33:10;;;;;;;;;12.00;10.25;;;;;26.80;57.59;100883.22;4995492;28;46294;-47
2023/08/19 04:35:36;;;;;;;;;8.75;8.75;;;;;26.76;57.57;100877.47;4995361;28;51734;-46
2023/08/19 04:38:03;;;;;;;;;13.50;10.00;;;;;26.76;57.15;100887.56;4995745;28;45508;-45
2023/08/19 04:40:30;;;;;;;;;11.40;9.80;;;;;26.73;56.97;100902.53;4995877;28;45305;-48
2023/08/19 04:42:57;;;;;;;;;12.80;9.80;;;;;26.70;57.69;100894.84;4994048;28;46219;-44
2023/08/19 04:45:22;;;;;;;;;11.80;9.60;;;;;26.69;57.02;100901.38;4995245;28;45289;-45
2023/08/19 04:47:48;;;;;;;;;12.00;10.25;;;;;26.68;57.02;100907.09;4995713;28;45451;-45
2023/08/19 04:50:13;;;;;;;;;12.50;9.50;;;;;26.59;56.97;100884.88;4998937;28;45425;-45
2023/08/19 04:52:39;;;;;;;;;9.00;7.75;;;;;26.60;56.95;100903.69;4998665;28;45274;-44
2023/08/19 04:55:04;;;;;;;;;9.75;9.00;;;;;26.58;56.67;100905.00;4998860;28;45247;-45
2023/08/19 04:57:30;;;;;;;;;10.75;10.25;;;;;26.56;56.38;100910.72;4998945;28;45315;-47
2023/08/19 04:59:55;;;;;;;;;12.50;8.50;;;;;26.36;56.98;100894.00;4998747;28;45441;-47
2023/08/19 05:02:20;;;;;;;;;17.50;12.00;;;;;26.51;56.93;100924.28;4998438;28;45911;-43
2023/08/19 05:04:46;;;;;;;;;11.00;9.75;;;;;26.48;57.14;100922.06;4998199;28;54822;-45
2023/08/19 05:07:11;;;;;;;;;10.50;8.75;;;;;26.44;56.98;100923.63;4997354;28;45843;-45
2023/08/19 05:09:36;;;;;;;;;9.50;8.00;;;;;26.46;57.55;100932.38;4997298;28;45534;-46
2023/08/19 05:12:02;;;;;;;;;10.75;10.00;;;;;26.41;57.18;100925.97;4998310;28;45421;-42
2023/08/19 05:14:27;;;;;;;;;6.25;6.25;;;;;26.40;57.26;100936.06;4998295;28;45483;-49
2023/08/19 05:16:53;;;;;;;;;8.50;6.00;;;;;26.35;57.24;100933.25;4998565;28;45892;-47
2023/08/19 05:19:20;;;;;;;;;5.00;5.00;;;;;26.34;57.15;100939.81;4998684;28;45398;-46
2023/08/19 05:21:48;;;;;;;;;6.20;5.00;;;;;26.32;56.89;100944.66;4997887;28;46299;-48
2023/08/19 05:24:14;;;;;;;;;5.80;5.80;;;;;26.33;56.69;100947.13;4998460;28;45314;-43
2023/08/19 05:26:41;;;;;;;;;5.60;5.60;;;;;26.33;56.71;100955.31;4998431;28;45465;-46
2023/08/19 05:29:07;;;;;;;;;7.80;6.20;;;;;26.30;56.79;100938.63;4998718;28;45421;-48
2023/08/19 05:31:33;;;;;;;;;7.00;5.50;;;;;26.29;56.53;100945.97;4997938;28;46343;-49
2023/08/19 05:33:59;;;;;;;;;8.00;5.60;;;;;26.36;57.09;100952.09;4997965;28;45283;-47
2023/08/19 05:36:24;;;;;;;;;8.25;7.50;;;;;26.16;57.00;100929.91;4998387;28;45452;-45
2023/08/19 05:38:50;;;;;;;;;6.75;6.75;;;;;26.38;56.36;100960.06;4998306;28;45403;-45
2023/08/19 05:41:15;;;;;;;;;7.25;6.00;;;;;26.39;56.37;100961.69;4997902;28;45451;-46
2023/08/19 05:43:40;;;;;;;;;8.75;8.25;;;;;26.41;56.72;100972.34;4996498;28;45436;-46
2023/08/19 05:46:07;;;;;;;;;6.25;5.00;;;;;26.40;56.55;100976.97;4998087;28;45454;-44
2023/08/19 05:48:32;;;;;;;;;6.20;6.20;;;;;26.40;56.23;100974.25;4997656;28;45369;-48
2023/08/19 05:50:58;;;;;;;;;6.00;6.00;;;;;26.37;56.48;100975.56;4997491;28;45570;-45
2023/08/19 05:53:23;;;;;;;;;7.75;5.25;;;;;26.40;56.66;100982.44;4997702;28;45386;-48
2023/08/19 05:55:48;;;;;;;;;8.50;7.75;;;;;26.40;56.33;100984.34;4997917;28;45182;-44
2023/08/19 05:58:15;;;;;;;;;9.00;5.25;;;;;26.41;57.06;100986.00;4997790;28;45384;-46
2023/08/19 06:00:42;;;;;;;;;6.80;6.80;;;;;26.41;57.00;100984.09;4997035;28;46407;-46
2023/08/19 06:03:07;;;;;;;;;7.20;6.40;;;;;26.41;56.51;100975.91;4997783;28;45474;-47
2023/08/19 06:05:35;;;;;;;;;7.50;6.00;;;;;26.44;56.55;100974.59;4997683;28;45424;-48
2023/08/19 06:08:00;;;;;;;;;8.00;6.80;;;;;26.47;56.65;100982.34;4997770;28;45430;-48
2023/08/19 06:10:25;;;;;;;;;8.25;8.00;;;;;26.49;56.79;100993.81;4997565;28;46115;-46
2023/08/19 06:12:51;;;;;;;;;7.50;7.25;;;;;26.53;56.82;101008.63;4997477;28;45464;-45
2023/08/19 06:15:16;;;;;;;;;7.00;7.00;;;;;26.51;56.32;100987.03;4997721;28;45370;-46
2023/08/19 06:17:41;;;;;;;;;9.00;6.25;;;;;26.48;56.49;100984.81;4997508;28;45310;-47
2023/08/19 06:20:07;;;;;;;;;7.25;5.25;;;;;26.56;56.47;101003.50;4996819;28;45355;-46
2023/08/19 06:22:33;;;;;;;;;5.50;5.25;;;;;26.57;55.65;101010.59;4997164;28;45198;-44
2023/08/19 06:24:58;;;;;;;;;6.25;6.25;;;;;26.56;55.78;101017.13;4997631;28;45321;-44
2023/08/19 06:27:24;;;;;;;;;7.50;6.00;;;;;26.58;55.52;101028.63;4996332;28;45281;-44
2023/08/19 06:29:49;;;;;;;;;6.50;5.00;;;;;26.59;56.11;101027.56;4996894;28;46869;-48
2023/08/19 06:32:15;;;;;;;;;8.75;4.75;;;;;26.60;55.70;101033.84;4997259;28;45405;-48
2023/08/19 06:34:40;;;;;;;;;6.00;4.75;;;;;26.59;55.61;101038.47;4997343;28;45449;-49
2023/08/19 06:37:10;;;;;;;;;5.25;4.00;;;;;26.57;55.67;101047.97;4997471;28;45512;-47
2023/08/19 06:39:38;;;;;;;;;5.60;4.60;;;;;26.58;54.96;101052.34;4997205;28;46144;-48
2023/08/19 06:42:05;;;;;;;;;6.80;4.60;;;;;26.55;55.27;101066.50;4996792;28;45307;-50
2023/08/19 06:44:33;;;;;;;;;5.00;5.00;;;;;26.52;55.94;101054.16;4997109;28;45424;-44
2023/08/19 06:47:00;;;;;;;;;3.80;3.80;;;;;26.50;55.18;101064.47;4997088;28;45310;-45
2023/08/19 06:49:26;;;;;;;;;4.60;4.20;;;;;26.50;55.53;101063.66;4996851;28;46638;-46
2023/08/19 06:51:52;;;;;;;;;5.00;5.00;;;;;26.46;55.01;101054.31;4996203;28;45417;-45
2023/08/19 06:54:18;;;;;;;;;8.40;5.20;;;;;26.50;55.47;101064.47;4995274;28;45577;-45
2023/08/19 06:56:55;;;;;;;;;4.00;4.00;;;;;26.48;55.22;101060.38;4997270;28;45278;-45
2023/08/19 06:59:40;;;;;;;;;6.20;5.20;;;;;26.58;55.51;101075.00;4996666;28;45381;-47
2023/08/19 07:02:07;;;;;;;;;4.00;4.00;;;;;26.62;55.14;101078.06;4996510;28;45334;-46
2023/08/19 07:04:34;;;;;;;;;6.20;4.40;;;;;26.67;55.58;101080.06;4996834;28;45399;-47
2023/08/19 07:07:03;;;;;;;;;5.40;4.80;;;;;26.68;55.38;101090.75;4996889;28;45415;-46
2023/08/19 07:09:29;;;;;;;;;6.40;6.00;;;;;26.74;55.32;101089.75;4996618;28;45769;-46
2023/08/19 07:11:56;;;;;;;;;6.00;6.00;;;;;26.71;55.41;101092.16;4996486;28;45345;-45
2023/08/19 07:14:24;;;;;;;;;4.20;4.20;;;;;26.60;55.04;101089.25;4996765;28;45428;-45
2023/08/19 07:16:50;;;;;;;;;5.00;5.00;;;;;26.64;55.03;101088.75;4996653;28;45509;-44
2023/08/19 07:19:21;;;;;;;;;5.00;4.80;;;;;26.59;55.15;101093.06;4996423;28;45396;-45
2023/08/19 07:21:47;;;;;;;;;4.40;4.40;;;;;26.61;55.19;101084.63;4996337;28;45412;-45
2023/08/19 07:24:13;;;;;;;;;10.00;5.40;;;;;26.69;55.47;101081.50;4996492;28;45455;-45
2023/08/19 07:26:39;;;;;;;;;8.00;5.50;;;;;26.68;55.18;101074.38;4996920;28;45353;-45
2023/08/19 07:29:05;;;;;;;;;6.00;4.60;;;;;26.66;55.34;101079.25;4996337;28;46125;-48
2023/08/19 07:31:31;;;;;;;;;6.25;4.50;;;;;26.65;55.38;101084.94;4996227;28;45453;-46
2023/08/19 07:33:58;;;;;;;;;5.00;4.25;;;;;26.64;55.63;101096.94;4996411;28;45390;-46
2023/08/19 07:36:25;;;;;;;;;6.00;5.20;;;;;26.67;55.43;101107.34;4996238;28;45164;-45
2023/08/19 07:38:50;;;;;;;;;6.60;5.40;;;;;26.70;55.70;101110.44;4996150;28;46856;-46
2023/08/19 07:41:18;;;;;;;;;5.00;3.25;;;;;26.71;55.55;101127.63;4996228;28;45412;-46
2023/08/19 07:43:43;;;;;;;;;4.00;4.00;;;;;26.68;55.11;101128.97;4996312;28;45422;-46
2023/08/19 07:46:09;;;;;;;;;4.00;3.00;;;;;26.67;55.06;101138.19;4996597;28;45238;-46
2023/08/19 07:48:34;;;;;;;;;3.00;3.00;;;;;26.60;55.41;101143.00;4996092;28;46128;-46
2023/08/19 07:51:00;;;;;;;;;3.00;2.00;;;;;26.52;55.40;101135.19;4996119;28;45426;-46
2023/08/19 07:53:25;;;;;;;;;5.00;5.00;;;;;26.42;55.46;101124.03;4995960;28;45416;-46
2023/08/19 07:55:50;;;;;;;;;3.75;3.75;;;;;26.35;56.11;101129.66;4996214;28;45372;-47
2023/08/19 07:58:16;;;;;;;;;2.00;2.00;;;;;26.30;56.24;101163.09;4995948;28;46318;-46
2023/08/19 08:00:42;;;;;;;;;5.25;3.75;;;;;26.25;55.92;101178.50;4994444;28;45456;-45
2023/08/19 08:03:07;;;;;;;;;4.00;4.00;;;;;26.18;56.13;101199.66;4996229;28;45295;-44
2023/08/19 08:05:32;;;;;;;;;2.75;2.75;;;;;26.07;57.10;101207.59;4996323;28;45461;-43
2023/08/19 08:07:58;;;;;;;;;4.00;4.00;;;;;26.04;57.05;101221.72;4995729;28;46265;-46
2023/08/19 08:10:24;;;;;;;;;4.60;4.60;;;;;25.92;58.22;101217.31;4995818;28;45231;-44
2023/08/19 08:12:49;;;;;;;;;3.75;3.50;;;;;25.86;58.30;101227.25;4995838;28;45766;-44
2023/08/19 08:15:15;;;;;;;;;6.00;4.75;;;;;25.75;58.86;101247.97;4996125;28;45366;-44
2023/08/19 08:17:40;;;;;;;;;4.25;4.25;;;;;25.65;59.08;101266.78;4995798;28;45526;-43
2023/08/19 08:20:08;;;;;;;;;5.50;4.25;;;;;25.60;59.14;101288.44;4995574;28;45946;-46
2023/08/19 08:22:33;;;;;;;;;5.40;5.40;;;;;25.57;59.53;101303.34;4996614;28;45329;-44
2023/08/19 08:24:59;;;;;;;;;4.25;2.00;;;;;25.53;60.16;101298.59;4999579;28;45241;-44
2023/08/19 08:27:25;;;;;;;;;4.50;4.50;;;;;25.48;60.66;101287.59;4998756;28;46067;-47
2023/08/19 08:29:50;;;;;;;;;4.75;4.75;;;;;25.42;60.79;101262.13;4998998;28;45337;-46
2023/08/19 08:32:16;;;;;;;;;5.75;4.00;;;;;25.38;61.61;101271.81;4999242;28;45303;-44
2023/08/19 08:34:41;;;;;;;;;8.50;5.25;;;;;25.35;60.73;101261.38;4999301;28;45310;-47
2023/08/19 08:37:07;;;;;;;;;6.00;4.00;;;;;25.34;61.30;101254.28;4998803;28;45722;-47
2023/08/19 08:39:32;;;;;;;;;4.75;4.25;;;;;25.32;62.07;101248.22;4998924;28;45345;-45
2023/08/19 08:41:59;;;;;;;;;4.75;4.75;;;;;25.28;61.71;101250.59;4997644;28;45390;-45
2023/08/19 08:44:26;;;;;;;;;4.40;3.60;;;;;25.35;62.67;101275.81;4998983;28;45437;-45
2023/08/19 08:46:52;;;;;;;;;6.00;4.80;;;;;25.35;62.03;101277.72;4998728;28;47460;-46
2023/08/19 08:49:18;;;;;;;;;8.00;5.40;;;;;25.33;63.64;101274.41;4998736;28;45443;-46
2023/08/19 08:51:44;;;;;;;;;4.20;4.20;;;;;25.29;62.76;101275.94;4998533;28;45405;-49
2023/08/19 08:54:10;;;;;;;;;5.50;5.50;;;;;25.29;63.97;101300.44;4999016;28;45404;-49
2023/08/19 08:56:36;;;;;;;;;5.00;5.00;;;;;25.34;64.17;101312.28;4998514;28;45349;-49
2023/08/19 08:59:02;;;;;;;;;3.75;3.75;;;;;25.34;63.77;101286.94;4998850;28;45513;-47
2023/08/19 09:01:29;;;;;;;;;6.00;3.80;;;;;25.51;63.04;101287.94;4998454;28;45223;-46
2023/08/19 09:04:02;;;;;;;;;5.60;4.80;;;;;25.49;62.56;101257.38;4998723;28;45823;-43
2023/08/19 09:06:27;;;;;;;;;5.60;5.60;;;;;25.58;63.33;101272.34;4998120;28;45345;-46
2023/08/19 09:08:57;;;;;;;;;7.00;5.00;;;;;25.54;63.36;101276.59;4998104;28;45390;-43
2023/08/19 09:11:27;;;;;;;;;6.40;6.00;;;;;25.55;64.03;101307.41;4998582;28;45451;-44
2023/08/19 09:14:38;;;;;;;;;29.50;21.00;;;;;25.51;63.25;101287.13;4998696;28;45437;-45
2023/08/19 09:17:03;;;;;;;;;5.20;5.00;;;;;25.48;64.07;101291.13;4982627;28;46002;-46
2023/08/19 09:19:29;;;;;;;;;6.50;6.50;;;;;25.44;64.99;101313.63;4997957;28;45377;-45
2023/08/19 09:21:54;;;;;;;;;4.25;4.25;;;;;25.37;64.47;101325.47;4997908;28;45477;-45
2023/08/19 09:24:20;;;;;;;;;5.75;5.00;;;;;25.31;64.69;101309.19;4998433;28;45679;-44
2023/08/19 09:26:45;;;;;;;;;5.75;5.75;;;;;25.23;64.37;101321.22;4997890;28;47103;-48
2023/08/19 09:29:13;;;;;;;;;8.00;4.00;;;;;25.13;64.77;101346.28;4998109;28;45393;-48
2023/08/19 09:31:39;;;;;;;;;9.20;4.40;;;;;25.08;65.46;101370.66;4998321;28;45442;-44
2023/08/19 09:34:04;;;;;;;;;5.00;5.00;;;;;25.09;65.92;101372.31;4997019;28;45309;-47
2023/08/19 09:36:30;;;;;;;;;7.00;6.50;;;;;25.02;64.96;101349.72;4997783;28;46096;-47
2023/08/19 09:38:57;;;;;;;;;5.50;5.50;;;;;25.06;64.64;101366.44;4997855;28;45330;-43
2023/08/19 09:41:27;;;;;;;;;10.60;5.60;;;;;25.00;65.35;101381.81;4997944;28;45405;-45
2023/08/19 09:43:54;;;;;;;;;5.60;5.60;;;;;24.95;64.79;101392.56;4998067;28;45507;-47
2023/08/19 09:46:19;;;;;;;;;5.00;5.00;;;;;24.96;65.71;101385.22;4997924;28;46523;-45
2023/08/19 09:48:54;;;;;;;;;7.00;5.00;;;;;24.93;65.51;101372.88;4997690;28;45272;-46
2023/08/19 09:51:27;;;;;;;;;8.20;6.00;;;;;24.90;66.48;101362.44;4997714;28;45370;-47
2023/08/19 09:53:53;;;;;;;;;6.20;5.20;;;;;24.92;67.16;101384.84;4997816;28;45490;-44
2023/08/19 09:56:24;;;;;;;;;6.75;5.75;;;;;24.85;67.08;101395.78;4997306;28;47076;-46
2023/08/19 09:58:51;;;;;;;;;3.60;3.60;;;;;24.87;66.46;101411.91;4997652;28;45433;-47
2023/08/19 10:01:17;;;;;;;;;6.00;5.80;;;;;24.80;67.50;101411.13;4997725;28;45491;-47
2023/08/19 10:03:43;;;;;;;;;7.50;6.25;;;;;24.77;68.31;101420.56;4997722;28;45377;-47
2023/08/19 10:06:15;;;;;;;;;5.80;5.80;;;;;24.73;67.67;101413.91;4996387;28;47198;-47
2023/08/19 10:08:48;;;;;;;;;8.60;5.40;;;;;24.68;68.06;101402.03;4997416;28;45353;-47
2023/08/19 10:11:15;;;;;;;;;7.80;7.80;;;;;24.64;68.23;101397.03;4997571;28;45472;-47
2023/08/19 10:13:44;;;;;;;;;9.20;9.20;;;;;24.66;68.71;101390.56;4997747;28;45338;-48
2023/08/19 10:16:13;;;;;;;;;7.80;7.20;;;;;24.63;70.22;101389.94;4997578;28;46296;-44
2023/08/19 10:18:42;;;;;;;;;7.80;7.60;;;;;24.59;69.77;101391.44;4997448;28;45401;-44
2023/08/19 10:21:10;;;;;;;;;8.40;7.60;;;;;24.57;69.95;101414.50;4997667;28;45347;-45
2023/08/19 10:23:39;;;;;;;;;7.60;6.40;;;;;24.61;69.67;101416.53;4997382;28;45401;-43
2023/08/19 10:26:06;;;;;;;;;6.00;5.80;;;;;24.74;70.23;101396.53;4997210;28;45435;-46
2023/08/19 10:28:33;;;;;;;;;9.40;8.00;;;;;24.89;69.71;101402.44;4997436;28;45478;-46
2023/08/19 10:31:12;;;;;;;;;8.20;8.00;;;;;25.11;68.82;101389.25;4997351;28;45302;-44
2023/08/19 10:33:43;;;;;;;;;7.40;6.20;;;;;25.17;68.44;101411.19;4997395;28;45333;-47
2023/08/19 10:36:13;;;;;;;;;7.60;6.20;;;;;25.16;67.68;101432.13;4997188;28;46254;-46
2023/08/19 10:38:43;;;;;;;;;8.20;6.20;;;;;25.26;66.86;101434.31;4996964;28;45357;-45
2023/08/19 10:41:17;;;;;;;;;6.80;6.00;;;;;25.48;66.83;101427.34;4997223;28;45520;-43
2023/08/19 10:43:54;;;;;;;;;5.20;5.20;;;;;25.68;66.31;101423.53;4996062;28;45399;-44
2023/08/19 10:46:23;;;;;;;;;5.80;5.60;;;;;25.89;65.35;101414.88;4996654;28;46287;-45
2023/08/19 10:48:52;;;;;;;;;4.40;4.40;;;;;26.27;64.50;101411.75;4996777;28;45420;-47
2023/08/19 10:51:18;;;;;;;;;6.20;5.00;;;;;27.50;61.49;101411.81;4997014;28;45409;-45
2023/08/19 10:54:06;;;;;;;;;5.80;4.80;;;;;29.15;57.16;101411.59;4996695;28;45575;-47
2023/08/19 10:56:32;;;;;;;;;7.00;5.80;;;;;30.24;54.59;101413.38;4996905;28;45360;-44
2023/08/19 10:58:57;;;;;;;;;5.50;5.50;;;;;31.15;51.45;101407.66;4997234;28;45286;-45
2023/08/19 11:01:23;;;;;;;;;7.75;5.25;;;;;31.64;50.28;101414.72;4996785;28;45384;-44
2023/08/19 11:03:49;;;;;;;;;3.00;3.00;;;;;31.93;48.65;101415.06;4997078;28;45397;-45
2023/08/19 11:06:14;;;;;;;;;5.00;4.00;;;;;33.94;45.67;101410.41;4996453;28;46145;-45
2023/08/19 11:08:41;;;;;;;;;5.00;4.00;;;;;35.36;41.84;101401.81;4995369;28;45482;-43
2023/08/19 11:11:07;;;;;;;;;3.80;3.80;;;;;35.33;40.68;101401.56;4996548;28;45445;-48
2023/08/19 11:13:34;;;;;;;;;4.00;3.00;;;;;34.46;42.37;101403.34;4996661;28;45401;-43
2023/08/19 11:16:05;;;;;;;;;2.60;2.60;;;;;33.50;43.91;101421.44;4996537;28;45546;-48
2023/08/19 11:18:30;;;;;;;;;2.60;2.60;;;;;32.68;46.67;101416.16;4996137;28;45389;-45